Time;durP1;ratioP1;P1;durP2;ratioP2;P2;SDS_P1;SDS_P2;PMS_P1;PMS_P2;Temp;Humidity;BMP_temperature;BMP_pressure;BME280_temperature;BME280_humidity;BME280_pressure;Samples;Min_cycle;Max_cycle;Signal;HPM_P1;HPM_P2
2022/01/14 00:00:10;;;;;;;107.87;28.97;;;;;;;1.28;100.00;103667.13;6432589;23;20339;-70
2022/01/14 00:02:41;;;;;;;100.43;25.93;;;;;;;1.24;100.00;103664.22;6432454;23;20005;-68
2022/01/14 00:05:13;;;;;;;128.07;26.30;;;;;;;1.26;100.00;103668.69;6432256;23;20013;-70
2022/01/14 00:07:44;;;;;;;114.67;27.40;;;;;;;1.23;100.00;103672.72;6432006;23;20080;-71
2022/01/14 00:10:15;;;;;;;144.73;28.23;;;;;;;1.26;100.00;103671.28;6432103;23;20427;-68
2022/01/14 00:12:53;;;;;;;136.10;30.27;;;;;;;1.21;100.00;103672.63;6432145;23;20104;-71
2022/01/14 00:15:26;;;;;;;99.95;24.88;;;;;;;1.19;100.00;103658.78;6432106;23;20012;-67
2022/01/14 00:17:57;;;;;;;91.28;25.95;;;;;;;1.15;100.00;103667.03;6431850;23;20089;-68
2022/01/14 00:20:29;;;;;;;91.50;25.27;;;;;;;1.15;100.00;103664.47;6432406;23;20005;-70
2022/01/14 00:23:00;;;;;;;79.27;25.80;;;;;;;1.14;100.00;103657.53;6432283;23;20005;-74
2022/01/14 00:33:44;;;;;;;81.03;26.00;;;;;;;1.11;100.00;103641.88;6433883;23;20124;-76
2022/01/14 00:36:15;;;;;;;70.33;25.47;;;;;;;1.10;100.00;103650.41;6407707;23;20100;-74
2022/01/14 00:38:46;;;;;;;80.17;26.70;;;;;;;1.13;100.00;103640.34;6434135;23;20016;-70
2022/01/14 00:41:18;;;;;;;80.93;26.07;;;;;;;1.16;100.00;103634.50;6433969;23;20124;-71
2022/01/14 00:43:54;;;;;;;144.97;29.77;;;;;;;1.09;100.00;103633.19;6433791;23;20379;-67
2022/01/14 00:46:26;;;;;;;144.13;29.08;;;;;;;1.07;100.00;103638.22;6433831;23;20828;-70
2022/01/14 00:48:57;;;;;;;111.53;26.07;;;;;;;1.09;100.00;103626.41;6433628;23;20004;-71
2022/01/14 00:51:28;;;;;;;115.97;27.20;;;;;;;1.06;100.00;103618.47;6433954;23;20036;-68
2022/01/14 00:54:00;;;;;;;106.47;27.17;;;;;;;1.05;100.00;103615.78;6434069;23;20004;-68
2022/01/14 00:56:46;;;;;;;77.67;24.57;;;;;;;1.08;100.00;103608.31;6434223;23;20012;-71
2022/01/14 00:59:17;;;;;;;69.68;24.55;;;;;;;1.11;100.00;103599.91;6433611;23;20028;-70
2022/01/14 01:01:55;;;;;;;84.63;23.23;;;;;;;1.10;100.00;103596.44;6407419;23;20139;-69
2022/01/14 01:04:34;;;;;;;49.75;23.95;;;;;;;1.14;100.00;103590.72;6433978;23;20005;-68
2022/01/14 01:07:09;;;;;;;86.82;22.98;;;;;;;1.11;100.00;103595.66;6433653;23;20013;-70
2022/01/14 01:09:46;;;;;;;108.15;24.85;;;;;;;1.07;100.00;103585.94;6434202;23;20471;-71
2022/01/14 01:12:33;;;;;;;105.65;23.83;;;;;;;1.02;100.00;103592.44;6433766;23;20013;-68
2022/01/14 01:15:07;;;;;;;103.53;25.55;;;;;;;0.99;100.00;103597.34;6433461;23;20104;-73
2022/01/14 01:17:38;;;;;;;110.00;24.48;;;;;;;0.98;100.00;103596.44;6433336;23;20379;-67
2022/01/14 01:20:21;;;;;;;104.20;23.70;;;;;;;0.99;100.00;103590.53;6433983;23;20009;-72
2022/01/14 01:22:54;;;;;;;142.77;24.73;;;;;;;0.97;100.00;103584.41;6433768;23;20009;-67
2022/01/14 01:25:29;;;;;;;138.50;23.70;;;;;;;0.93;100.00;103591.78;6434166;23;20012;-70
2022/01/14 01:28:00;;;;;;;108.32;24.08;;;;;;;0.88;100.00;103582.06;6433419;23;20083;-68
2022/01/14 01:33:06;;;;;;;132.47;23.50;;;;;;;0.82;100.00;103593.56;6434575;23;20354;-71
2022/01/14 01:35:37;;;;;;;66.47;21.38;;;;;;;0.81;100.00;103574.69;6434469;23;20379;-69
2022/01/14 01:38:15;;;;;;;89.10;21.83;;;;;;;0.86;100.00;103583.63;6433792;23;20079;-68
2022/01/14 01:40:48;;;;;;;126.55;22.90;;;;;;;0.88;100.00;103588.88;6433504;23;20144;-71
2022/01/14 01:43:24;;;;;;;92.35;21.83;;;;;;;0.87;100.00;103585.41;6433940;23;20008;-71
2022/01/14 01:45:56;;;;;;;74.85;20.67;;;;;;;0.86;100.00;103577.59;6434317;23;20005;-70
2022/01/14 01:48:27;;;;;;;132.83;26.93;;;;;;;0.77;100.00;103575.25;6434198;23;20009;-72
2022/01/14 01:50:59;;;;;;;97.87;21.30;;;;;;;0.79;100.00;103570.22;6436117;23;20279;-69
2022/01/14 01:53:31;;;;;;;109.27;21.90;;;;;;;0.72;100.00;103568.91;6437284;23;20004;-67
2022/01/14 01:56:02;;;;;;;140.38;23.00;;;;;;;0.68;100.00;103569.47;6437854;23;20029;-67
2022/01/14 01:58:34;;;;;;;95.50;20.23;;;;;;;0.63;100.00;103569.13;6437868;23;20009;-69
2022/01/14 02:01:06;;;;;;;91.60;20.50;;;;;;;0.62;100.00;103579.28;6437987;23;20040;-69
2022/01/14 02:03:38;;;;;;;79.80;21.98;;;;;;;0.61;100.00;103583.53;6438409;23;20017;-68
2022/01/14 02:06:10;;;;;;;124.28;24.60;;;;;;;0.56;100.00;103584.84;6438842;23;20013;-68
2022/01/14 02:08:41;;;;;;;140.43;23.57;;;;;;;0.60;100.00;103576.59;6439526;23;20434;-68
2022/01/14 02:11:13;;;;;;;96.07;21.83;;;;;;;0.64;100.00;103580.28;6438053;23;20158;-69
2022/01/14 02:13:45;;;;;;;119.17;22.73;;;;;;;0.63;100.00;103584.53;6439632;23;20004;-68
2022/01/14 02:16:30;;;;;;;131.30;21.95;;;;;;;0.62;100.00;103577.59;6438735;23;20001;-69
2022/01/14 02:27:14;;;;;;;92.18;22.50;;;;;;;0.58;100.00;103574.69;6285469;23;20651;-68
2022/01/14 02:29:45;;;;;;;85.80;21.83;;;;;;;0.62;100.00;103549.38;6283301;23;20037;-67
2022/01/14 02:32:17;;;;;;;132.93;25.80;;;;;;;0.47;100.00;103561.09;6284103;23;20479;-67
2022/01/14 02:34:48;;;;;;;83.00;21.93;;;;;;;0.54;100.00;103550.47;6284262;23;20055;-68
2022/01/14 02:37:20;;;;;;;65.57;21.13;;;;;;;0.54;100.00;103541.09;6283176;23;20066;-68
2022/01/14 02:39:51;;;;;;;110.63;21.80;;;;;;;0.51;100.00;103546.00;6283062;23;20019;-68
2022/01/14 02:42:23;;;;;;;94.63;22.53;;;;;;;0.48;100.00;103537.19;6283767;23;20030;-68
2022/01/14 02:45:00;;;;;;;119.47;22.67;;;;;;;0.45;100.00;103539.53;6281548;23;20693;-70
2022/01/14 02:47:32;;;;;;;70.47;18.67;;;;;;;0.54;100.00;103547.91;6277352;23;20090;-72
2022/01/14 02:50:08;;;;;;;91.17;20.00;;;;;;;0.53;100.00;103553.81;6280802;23;20095;-69
2022/01/14 02:53:01;;;;;;;37.88;17.98;;;;;;;0.60;100.00;103543.25;6281539;23;20356;-67
2022/01/14 02:55:34;;;;;;;96.40;21.70;;;;;;;0.53;100.00;103530.72;6282190;23;20030;-67
2022/01/14 02:58:06;;;;;;;186.90;24.65;;;;;;;0.39;100.00;103533.94;6311195;23;20008;-67
2022/01/14 03:00:38;;;;;;;116.77;20.27;;;;;;;0.43;100.00;103535.97;6437850;23;20009;-69
2022/01/14 03:03:10;;;;;;;99.97;20.77;;;;;;;0.40;100.00;103540.88;6438052;23;20005;-68
2022/01/14 03:05:41;;;;;;;89.25;19.73;;;;;;;0.42;100.00;103540.22;6437678;23;20023;-69
2022/01/14 03:08:12;;;;;;;164.80;23.73;;;;;;;0.36;100.00;103538.09;6437668;23;20422;-67
2022/01/14 03:10:47;;;;;;;109.40;21.23;;;;;;;0.43;100.00;103541.13;6438258;23;20008;-68
2022/01/14 03:13:20;;;;;;;112.85;19.60;;;;;;;0.43;100.00;103538.53;6438111;23;20327;-68
2022/01/14 03:15:52;;;;;;;156.13;24.70;;;;;;;0.34;100.00;103539.66;6445795;23;20083;-67
2022/01/14 03:18:33;;;;;;;119.90;20.42;;;;;;;0.35;100.00;103536.31;6447029;23;20277;-68
2022/01/14 03:21:15;;;;;;;86.55;19.48;;;;;;;0.39;100.00;103528.81;6447480;23;20001;-66
2022/01/14 03:24:02;;;;;;;146.70;20.90;;;;;;;0.41;100.00;103538.44;6446844;23;20036;-67
2022/01/14 03:26:33;;;;;;;136.75;22.92;;;;;;;0.41;100.00;103537.56;6448865;23;20064;-69
2022/01/14 03:29:04;;;;;;;107.77;20.03;;;;;;;0.35;100.00;103536.31;6442434;23;20093;-70
2022/01/14 03:31:36;;;;;;;99.63;21.63;;;;;;;0.33;100.00;103531.84;6434378;23;20044;-68
2022/01/14 03:34:07;;;;;;;142.93;23.60;;;;;;;0.31;100.00;103542.00;6434306;23;20033;-69
2022/01/14 03:36:39;;;;;;;116.17;20.20;;;;;;;0.31;100.00;103546.25;6432344;23;20413;-70
2022/01/14 03:39:11;;;;;;;133.80;21.63;;;;;;;0.25;100.00;103551.81;6431672;23;20005;-68
2022/01/14 03:41:43;;;;;;;112.60;22.20;;;;;;;0.21;100.00;103543.75;6431891;23;20004;-70
2022/01/14 03:44:15;;;;;;;;;;;;;;;0.20;100.00;103527.50;6432430;23;20398;-70
2022/01/14 03:46:47;;;;;;;181.85;22.52;;;;;;;0.12;100.00;103532.03;6431620;23;19912;-69
2022/01/14 03:49:18;;;;;;;189.40;24.73;;;;;;;0.06;100.00;103534.16;6432316;23;20005;-70
2022/01/14 03:51:50;;;;;;;128.37;21.57;;;;;;;0.10;100.00;103535.28;6432759;23;20015;-70
2022/01/14 03:54:22;;;;;;;115.28;22.98;;;;;;;0.12;100.00;103533.72;6432477;23;20024;-69
2022/01/14 03:56:53;;;;;;;211.10;25.60;;;;;;;0.09;100.00;103538.63;6433007;23;20055;-70
2022/01/14 03:59:25;;;;;;;126.47;22.80;;;;;;;0.14;100.00;103532.16;6433337;23;20236;-68
2022/01/14 04:01:56;;;;;;;104.00;21.93;;;;;;;0.24;100.00;103534.66;6434718;23;20019;-68
2022/01/14 04:04:38;;;;;;;67.68;19.65;;;;;;;0.31;100.00;103534.31;6433844;23;20373;-67
2022/01/14 04:07:10;;;;;;;178.20;25.27;;;;;;;0.24;100.00;103537.22;6433002;23;20044;-68
2022/01/14 04:09:42;;;;;;;61.55;20.45;;;;;;;0.34;100.00;103538.78;6431535;23;20033;-68
2022/01/14 04:12:19;;;;;;;135.37;21.97;;;;;;;0.34;100.00;103536.22;6434284;23;20115;-69
2022/01/14 04:17:25;;;;;;;115.85;20.67;;;;;;;0.38;100.00;103527.06;6434425;23;20036;-67
2022/01/14 04:19:56;;;;;;;140.97;23.03;;;;;;;0.34;100.00;103525.94;6433654;23;20033;-68
2022/01/14 04:22:27;;;;;;;152.83;24.47;;;;;;;0.30;100.00;103526.50;6407431;23;20502;-68
2022/01/14 04:24:59;;;;;;;112.93;20.60;;;;;;;0.33;100.00;103525.03;6433776;23;20013;-68
2022/01/14 04:27:30;;;;;;;154.27;23.87;;;;;;;0.19;100.00;103525.69;6434369;23;20013;-69
2022/01/14 04:30:02;;;;;;;127.97;22.53;;;;;;;0.26;100.00;103527.03;6434158;23;20001;-71
2022/01/14 04:32:33;;;;;;;158.50;21.23;;;;;;;0.20;100.00;103521.47;6433971;23;20308;-69
2022/01/14 04:35:05;;;;;;;172.40;21.47;;;;;;;0.12;100.00;103518.34;6433763;23;20001;-67
2022/01/14 04:37:36;;;;;;;150.37;21.13;;;;;;;0.11;100.00;103521.66;6433843;23;20013;-69
2022/01/14 04:40:08;;;;;;;176.13;26.10;;;;;;;0.14;100.00;103515.09;6406601;23;20009;-68
2022/01/14 04:42:43;;;;;;;154.05;22.85;;;;;;;0.17;100.00;103511.88;6433361;23;20005;-67
2022/01/14 04:45:27;;;;;;;145.27;20.73;;;;;;;0.13;100.00;103508.19;6433444;23;20083;-69
2022/01/14 04:47:59;;;;;;;187.50;21.35;;;;;;;0.09;100.00;103508.72;6433497;23;20284;-67
2022/01/14 04:50:31;;;;;;;128.97;22.00;;;;;;;0.03;100.00;103498.00;6433687;23;20001;-68
2022/01/14 04:53:02;;;;;;;156.75;23.05;;;;;;;0.04;100.00;103499.81;6434127;23;20009;-68
2022/01/14 04:55:34;;;;;;;166.50;22.40;;;;;;;0.05;100.00;103499.03;6432595;23;20076;-69
2022/01/14 04:58:05;;;;;;;221.30;24.73;;;;;;;-0.04;100.00;103499.22;6432468;23;20012;-67
2022/01/14 05:00:38;;;;;;;141.13;22.20;;;;;;;-0.05;100.00;103482.09;6433520;23;20042;-69
2022/01/14 05:03:10;;;;;;;176.90;23.75;;;;;;;-0.07;100.00;103486.19;6433526;23;20005;-69
2022/01/14 05:05:46;;;;;;;127.53;20.97;;;;;;;-0.03;100.00;103483.09;6432922;23;20063;-68
2022/01/14 05:08:26;;;;;;;129.30;21.05;;;;;;;0.00;100.00;103477.31;6431836;23;20031;-69
2022/01/14 05:13:30;;;;;;;107.03;21.33;;;;;;;0.01;100.00;103475.63;6432522;23;20013;-74
2022/01/14 05:16:02;;;;;;;135.80;21.57;;;;;;;0.02;100.00;103467.13;6433914;23;20395;-70
2022/01/14 05:18:37;;;;;;;141.23;21.17;;;;;;;0.03;100.00;103471.47;6433278;23;20009;-69
2022/01/14 05:21:09;;;;;;;118.28;18.48;;;;;;;0.00;100.00;103467.03;6433425;23;20183;-68
2022/01/14 05:23:42;;;;;;;162.30;22.13;;;;;;;-0.15;100.00;103479.59;6432428;23;20316;-69
2022/01/14 05:26:13;;;;;;;130.00;18.17;;;;;;;-0.14;100.00;103471.13;6433870;23;20012;-68
2022/01/14 05:28:46;;;;;;;135.97;20.07;;;;;;;-0.17;100.00;103470.91;6433737;23;20418;-69
2022/01/14 05:31:17;;;;;;;132.55;19.42;;;;;;;-0.21;100.00;103474.00;6433459;23;20009;-69
2022/01/14 05:33:50;;;;;;;109.93;19.33;;;;;;;-0.20;100.00;103481.81;6433215;23;20092;-68
2022/01/14 05:36:22;;;;;;;69.43;16.73;;;;;;;-0.19;100.00;103480.16;6433128;23;20005;-71
2022/01/14 05:38:53;;;;;;;77.97;17.93;;;;;;;-0.25;100.00;103466.88;6433146;23;20013;-74
2022/01/14 05:41:26;;;;;;;64.40;17.67;;;;;;;-0.20;100.00;103462.97;6433683;23;20321;-70
2022/01/14 05:44:08;;;;;;;90.13;18.27;;;;;;;-0.18;100.00;103479.34;6433935;23;20005;-71
2022/01/14 05:46:40;;;;;;;72.13;17.77;;;;;;;-0.17;100.00;103464.91;6432335;23;20096;-71
2022/01/14 05:49:13;;;;;;;104.78;19.58;;;;;;;-0.21;100.00;103459.53;6433106;23;20064;-68
2022/01/14 05:51:45;;;;;;;84.18;18.88;;;;;;;-0.25;100.00;103457.50;6431508;23;20088;-69
2022/01/14 05:54:18;;;;;;;85.88;19.27;;;;;;;-0.23;100.00;103467.88;6433868;23;20013;-68
2022/01/14 05:56:49;;;;;;;133.25;20.23;;;;;;;-0.25;100.00;103459.19;6434124;23;20320;-70
2022/01/14 05:59:21;;;;;;;100.97;19.23;;;;;;;-0.25;100.00;103449.81;6433096;23;20112;-68
2022/01/14 06:01:52;;;;;;;103.00;21.20;;;;;;;-0.30;100.00;103456.28;6432801;23;20012;-70
2022/01/14 06:04:23;;;;;;;101.63;19.33;;;;;;;-0.28;100.00;103464.09;6433200;23;20009;-71
2022/01/14 06:06:55;;;;;;;112.67;21.20;;;;;;;-0.30;100.00;103460.53;6432505;23;20013;-70
2022/01/14 06:09:26;;;;;;;92.13;20.03;;;;;;;-0.25;100.00;103462.63;6432856;23;20017;-70
2022/01/14 06:11:57;;;;;;;94.07;20.87;;;;;;;-0.27;100.00;103465.88;6432851;23;20005;-68
2022/01/14 06:14:29;;;;;;;101.30;21.43;;;;;;;-0.23;100.00;103453.38;6433367;23;20084;-69
2022/01/14 06:17:00;;;;;;;80.13;20.97;;;;;;;-0.21;100.00;103463.75;6432861;23;20005;-69
2022/01/14 06:19:31;;;;;;;127.70;23.77;;;;;;;-0.26;100.00;103470.22;6432300;23;20000;-69
2022/01/14 06:22:03;;;;;;;96.73;20.93;;;;;;;-0.28;100.00;103474.34;6431882;23;20407;-70
2022/01/14 06:24:35;;;;;;;119.33;22.17;;;;;;;-0.38;100.00;103473.63;6432326;23;20013;-66
2022/01/14 06:27:06;;;;;;;71.73;20.67;;;;;;;-0.29;100.00;103464.84;6432799;23;20035;-69
2022/01/14 06:29:37;;;;;;;48.30;18.63;;;;;;;-0.22;100.00;103474.81;6433753;23;20009;-70
2022/01/14 06:32:09;;;;;;;86.93;20.23;;;;;;;-0.23;100.00;103476.44;6432781;23;20091;-69
2022/01/14 06:34:40;;;;;;;148.90;24.13;;;;;;;-0.31;100.00;103484.34;6432786;23;20052;-68
2022/01/14 06:37:11;;;;;;;121.83;23.37;;;;;;;-0.31;100.00;103471.53;6432408;23;20005;-69
2022/01/14 06:39:43;;;;;;;113.93;23.00;;;;;;;-0.33;100.00;103476.56;6432686;23;20125;-68
2022/01/14 06:42:15;;;;;;;113.47;20.30;;;;;;;-0.27;100.00;103469.31;6433160;23;20001;-71
2022/01/14 06:44:46;;;;;;;111.03;24.33;;;;;;;-0.24;100.00;103466.06;6406157;23;20005;-68
2022/01/14 06:47:17;;;;;;;89.37;19.80;;;;;;;-0.17;100.00;103457.19;6432656;23;20008;-68
2022/01/14 06:49:49;;;;;;;135.47;22.63;;;;;;;-0.17;100.00;103452.97;6432432;23;20036;-68
2022/01/14 06:52:20;;;;;;;116.83;23.13;;;;;;;-0.19;100.00;103447.72;6432115;23;20164;-67
2022/01/14 06:54:52;;;;;;;111.20;23.57;;;;;;;-0.27;100.00;103453.94;6432086;23;20001;-69
2022/01/14 06:57:24;;;;;;;88.93;21.53;;;;;;;-0.22;100.00;103461.97;6432564;23;20427;-68
2022/01/14 06:59:55;;;;;;;103.43;22.90;;;;;;;-0.23;100.00;103450.81;6405087;23;20005;-69
2022/01/14 07:02:27;;;;;;;127.33;24.87;;;;;;;-0.25;100.00;103456.63;6432256;23;20284;-68
2022/01/14 07:04:58;;;;;;;147.17;24.53;;;;;;;-0.31;100.00;103463.84;6433115;23;20021;-69
2022/01/14 07:07:29;;;;;;;170.27;28.23;;;;;;;-0.35;100.00;103465.31;6432734;23;20041;-69
2022/01/14 07:10:01;;;;;;;148.37;25.10;;;;;;;-0.34;100.00;103468.75;6432577;23;20123;-70
2022/01/14 07:12:36;;;;;;;164.67;26.77;;;;;;;-0.31;100.00;103476.66;6432441;23;20070;-69
2022/01/14 07:15:10;;;;;;;117.93;25.10;;;;;;;-0.39;100.00;103477.00;6432731;23;20009;-68
2022/01/14 07:17:43;;;;;;;89.05;25.30;;;;;;;-0.27;100.00;103476.13;6431640;23;20144;-69
2022/01/14 07:20:17;;;;;;;171.85;29.13;;;;;;;-0.33;100.00;103480.78;6431250;23;20009;-69
2022/01/14 07:22:49;;;;;;;131.25;26.58;;;;;;;-0.32;100.00;103482.56;6431171;23;20331;-70
2022/01/14 07:25:20;;;;;;;161.67;27.43;;;;;;;-0.36;100.00;103486.56;6430889;23;20005;-69
2022/01/14 07:27:52;;;;;;;188.10;33.13;;;;;;;-0.41;100.00;103491.34;6431640;23;20347;-68
2022/01/14 07:30:24;;;;;;;107.77;26.17;;;;;;;-0.31;100.00;103489.47;6432643;23;20464;-70
2022/01/14 07:32:55;;;;;;;143.25;27.13;;;;;;;-0.33;100.00;103474.00;6431613;23;20079;-67
2022/01/14 07:35:28;;;;;;;166.73;29.98;;;;;;;-0.31;100.00;103474.09;6431390;23;20075;-67
2022/01/14 07:37:59;;;;;;;149.80;29.03;;;;;;;-0.30;100.00;103486.16;6431939;23;20426;-68
2022/01/14 07:40:30;;;;;;;170.50;29.57;;;;;;;-0.36;100.00;103478.88;6431394;23;20083;-69
2022/01/14 07:43:02;;;;;;;119.07;27.57;;;;;;;-0.27;100.00;103489.84;6431499;23;20366;-67
2022/01/14 07:45:33;;;;;;;121.63;27.90;;;;;;;-0.30;100.00;103486.16;6431980;23;20011;-68
2022/01/14 07:48:04;;;;;;;144.87;27.87;;;;;;;-0.30;100.00;103484.47;6432030;23;20044;-67
2022/01/14 07:50:36;;;;;;;145.83;30.03;;;;;;;-0.30;100.00;103478.47;6404397;23;20443;-67
2022/01/14 07:53:07;;;;;;;201.37;31.13;;;;;;;-0.33;100.00;103476.56;6430740;23;20261;-68
2022/01/14 07:55:39;;;;;;;144.57;28.90;;;;;;;-0.28;100.00;103484.59;6431201;23;20005;-67
2022/01/14 07:58:11;;;;;;;103.33;25.73;;;;;;;-0.23;100.00;103485.81;6432189;23;20020;-68
2022/01/14 08:00:43;;;;;;;169.73;28.60;;;;;;;-0.25;100.00;103477.13;6431956;23;20009;-68
2022/01/14 08:03:14;;;;;;;147.10;30.00;;;;;;;-0.30;100.00;103475.91;6431288;23;20071;-68
2022/01/14 08:05:47;;;;;;;168.17;28.77;;;;;;;-0.31;100.00;103479.22;6431374;23;20399;-70
2022/01/14 08:08:18;;;;;;;175.95;29.88;;;;;;;-0.38;100.00;103481.31;6431247;23;20404;-68
2022/01/14 08:10:50;;;;;;;145.63;29.70;;;;;;;-0.35;100.00;103484.88;6432277;23;20434;-68
2022/01/14 08:13:21;;;;;;;174.07;30.73;;;;;;;-0.35;100.00;103488.38;6431886;23;20332;-68
2022/01/14 08:15:53;;;;;;;176.67;27.80;;;;;;;-0.33;100.00;103493.59;6431435;23;20009;-68
2022/01/14 08:18:24;;;;;;;162.03;29.10;;;;;;;-0.30;100.00;103476.78;6431970;23;20001;-67
2022/01/14 08:20:56;;;;;;;170.00;31.03;;;;;;;-0.31;100.00;103474.09;6432373;23;20326;-70
2022/01/14 08:23:27;;;;;;;169.18;33.03;;;;;;;-0.27;100.00;103465.88;6431944;23;20013;-67
2022/01/14 08:25:59;;;;;;;165.27;30.57;;;;;;;-0.25;100.00;103465.19;6432142;23;20089;-68
2022/01/14 08:28:30;;;;;;;162.17;32.20;;;;;;;-0.26;100.00;103473.69;6431820;23;20107;-69
2022/01/14 08:31:02;;;;;;;147.27;29.50;;;;;;;-0.19;100.00;103478.47;6431873;23;20084;-68
2022/01/14 08:33:33;;;;;;;215.03;33.70;;;;;;;-0.18;100.00;103466.53;6432242;23;20009;-69
2022/01/14 08:36:05;;;;;;;169.33;33.37;;;;;;;-0.18;100.00;103458.84;6432570;23;20031;-67
2022/01/14 08:38:37;;;;;;;150.77;32.45;;;;;;;-0.13;100.00;103456.63;6431328;23;20060;-67
2022/01/14 08:41:08;;;;;;;196.17;36.37;;;;;;;-0.18;100.00;103463.97;6430875;23;20493;-67
2022/01/14 08:43:39;;;;;;;149.83;33.57;;;;;;;-0.14;100.00;103463.44;6432065;23;20005;-71
2022/01/14 08:46:11;;;;;;;150.83;34.20;;;;;;;-0.09;100.00;103492.88;6433199;23;20054;-69
2022/01/14 08:48:42;;;;;;;110.23;31.30;;;;;;;0.05;100.00;103483.66;6433524;23;20194;-67
2022/01/14 08:51:13;;;;;;;152.17;33.33;;;;;;;0.11;100.00;103502.06;6433495;23;20031;-67
2022/01/14 08:53:45;;;;;;;122.27;31.73;;;;;;;0.15;100.00;103501.50;6433852;23;20426;-68
2022/01/14 08:56:16;;;;;;;152.37;34.57;;;;;;;0.10;100.00;103479.75;6434402;23;20032;-69
2022/01/14 08:58:47;;;;;;;144.83;30.27;;;;;;;0.13;100.00;103459.47;6433721;23;20012;-69
2022/01/14 09:01:19;;;;;;;155.57;33.63;;;;;;;0.12;100.00;103477.28;6433709;23;20011;-69
2022/01/14 09:03:50;;;;;;;166.27;33.20;;;;;;;0.07;100.00;103466.69;6433693;23;20281;-68
2022/01/14 09:06:22;;;;;;;146.63;34.17;;;;;;;0.16;100.00;103462.25;6433548;23;20017;-71
2022/01/14 09:08:53;;;;;;;181.63;33.93;;;;;;;0.17;100.00;103481.09;6433650;23;20120;-68
2022/01/14 09:11:25;;;;;;;145.57;32.13;;;;;;;0.28;100.00;103469.94;6433092;23;20012;-69
2022/01/14 09:13:56;;;;;;;134.83;32.67;;;;;;;0.40;100.00;103467.34;6433141;23;20340;-69
2022/01/14 09:16:28;;;;;;;162.93;34.07;;;;;;;0.47;100.00;103477.28;6433219;23;20273;-68
2022/01/14 09:19:00;;;;;;;116.30;29.97;;;;;;;0.56;100.00;103477.03;6432482;23;20012;-68
2022/01/14 09:21:31;;;;;;;138.32;31.33;;;;;;;0.62;100.00;103469.78;6432181;23;20032;-67
2022/01/14 09:24:03;;;;;;;150.53;31.13;;;;;;;0.58;100.00;103475.50;6433300;23;20093;-67
2022/01/14 09:26:36;;;;;;;127.00;32.23;;;;;;;0.67;100.00;103472.69;6432614;23;20076;-68
2022/01/14 09:29:07;;;;;;;;;;;;;;;0.86;100.00;103467.19;6433459;23;20017;-68
2022/01/14 09:31:39;;;;;;;92.47;29.73;;;;;;;0.84;100.00;103482.47;6432235;23;19995;-67
2022/01/14 09:34:10;;;;;;;99.20;28.67;;;;;;;0.99;100.00;103477.50;6433574;23;20036;-70
2022/01/14 09:36:42;;;;;;;108.40;29.40;;;;;;;1.00;100.00;103479.31;6432972;23;20009;-69
2022/01/14 09:39:13;;;;;;;88.83;28.13;;;;;;;1.07;100.00;103472.91;6432825;23;20015;-69
2022/01/14 09:41:46;;;;;;;117.97;27.10;;;;;;;1.09;100.00;103471.34;6432792;23;20005;-67
2022/01/14 09:44:20;;;;;;;133.73;28.27;;;;;;;0.97;100.00;103481.66;6432726;23;20028;-69
2022/01/14 09:46:52;;;;;;;159.73;29.92;;;;;;;0.85;100.00;103476.56;6432363;23;20379;-69
2022/01/14 09:49:23;;;;;;;103.57;28.10;;;;;;;0.94;100.00;103489.16;6432758;23;20004;-68
2022/01/14 09:51:55;;;;;;;107.33;30.07;;;;;;;1.12;100.00;103486.09;6432304;23;20312;-69
2022/01/14 09:54:27;;;;;;;62.73;26.50;;;;;;;1.16;100.00;103486.41;6431914;23;20012;-67
2022/01/14 09:56:58;;;;;;;72.07;28.93;;;;;;;1.27;100.00;103497.41;6432122;23;20023;-68
2022/01/14 09:59:30;;;;;;;90.77;27.83;;;;;;;1.26;100.00;103498.22;6432934;23;20309;-68
2022/01/14 10:02:01;;;;;;;87.63;28.97;;;;;;;1.27;100.00;103502.53;6432735;23;20037;-74
2022/01/14 10:04:33;;;;;;;78.17;27.53;;;;;;;1.28;100.00;103501.78;6432464;23;20021;-68
2022/01/14 10:07:05;;;;;;;80.85;27.27;;;;;;;1.22;100.00;103502.25;6431526;23;20352;-70
2022/01/14 10:09:39;;;;;;;89.10;26.80;;;;;;;1.24;100.00;103498.09;6432501;23;20087;-68
2022/01/14 10:12:15;;;;;;;71.63;27.15;;;;;;;1.28;100.00;103504.34;6433361;23;20001;-72
2022/01/14 10:15:09;;;;;;;73.63;28.35;;;;;;;1.38;100.00;103506.75;6432667;23;20032;-69
2022/01/14 10:17:44;;;;;;;51.70;27.63;;;;;;;1.45;100.00;103514.13;6433017;23;20008;-73
2022/01/14 10:20:15;;;;;;;87.25;29.98;;;;;;;1.43;100.00;103520.84;6432950;23;20005;-73
2022/01/14 10:22:48;;;;;;;55.70;26.63;;;;;;;1.48;100.00;103517.66;6432533;23;20084;-69
2022/01/14 10:25:20;;;;;;;63.25;27.17;;;;;;;1.41;100.00;103516.38;6432529;23;20005;-68
2022/01/14 10:27:54;;;;;;;46.63;25.45;;;;;;;1.45;100.00;103506.41;6431412;23;20323;-71
2022/01/14 10:30:28;;;;;;;42.88;23.85;;;;;;;1.53;100.00;103506.00;6432393;23;20012;-71
2022/01/14 10:33:01;;;;;;;50.05;25.02;;;;;;;1.55;100.00;103499.31;6433042;23;20013;-71
2022/01/14 10:35:36;;;;;;;48.38;26.73;;;;;;;1.59;100.00;103506.44;6432173;23;20531;-68
2022/01/14 10:38:10;;;;;;;37.33;25.58;;;;;;;1.69;100.00;103502.81;6432922;23;20020;-68
2022/01/14 10:40:49;;;;;;;44.97;24.73;;;;;;;1.83;100.00;103504.63;6433706;23;20059;-70
2022/01/14 10:43:29;;;;;;;63.45;27.65;;;;;;;1.82;100.00;103501.19;6435176;23;20073;-72
2022/01/14 10:46:08;;;;;;;39.25;25.30;;;;;;;1.94;100.00;103500.22;6435298;23;20005;-71
2022/01/14 10:48:43;;;;;;;38.42;25.95;;;;;;;1.98;100.00;103482.50;6434194;23;20019;-70
2022/01/14 10:51:17;;;;;;;33.03;23.05;;;;;;;1.99;100.00;103491.09;6434529;23;20008;-71
2022/01/14 10:53:52;;;;;;;34.53;22.05;;;;;;;2.05;100.00;103488.94;6434213;23;20028;-71
2022/01/14 10:56:25;;;;;;;36.17;24.25;;;;;;;2.08;100.00;103493.41;6433206;23;20036;-70
2022/01/14 10:58:59;;;;;;;33.95;23.50;;;;;;;2.27;100.00;103491.25;6432386;23;20013;-69
2022/01/14 11:01:31;;;;;;;36.78;25.25;;;;;;;2.25;100.00;103479.94;6432461;23;20039;-69
2022/01/14 11:04:14;;;;;;;39.22;25.13;;;;;;;2.21;100.00;103471.91;6432665;23;20566;-68
2022/01/14 11:06:45;;;;;;;36.17;24.45;;;;;;;2.28;100.00;103492.13;6432115;23;20013;-69
2022/01/14 11:09:22;;;;;;;32.10;22.27;;;;;;;2.29;100.00;103479.34;6432243;23;20009;-68
2022/01/14 11:11:53;;;;;;;32.00;22.83;;;;;;;2.35;100.00;103469.47;6432505;23;20412;-69
2022/01/14 11:14:25;;;;;;;36.17;24.50;;;;;;;2.43;100.00;103472.53;6431773;23;20153;-67
2022/01/14 11:16:56;;;;;;;34.90;24.00;;;;;;;2.46;100.00;103469.25;6432411;23;20043;-67
2022/01/14 11:19:28;;;;;;;34.73;22.87;;;;;;;2.49;100.00;103466.88;6431959;23;20009;-67
2022/01/14 11:24:50;;;;;;;30.90;23.45;;;;;;;2.56;100.00;103463.91;6431809;23;20048;-67
2022/01/14 11:27:23;;;;;;;34.23;24.27;;;;;;;2.61;100.00;103459.00;6431996;23;20404;-67
2022/01/14 11:29:58;;;;;;;33.38;22.83;;;;;;;2.60;100.00;103463.28;6431650;23;20005;-68
2022/01/14 11:32:57;;;;;;;33.75;23.30;;;;;;;2.76;100.00;103470.28;6432100;23;20450;-67
2022/01/14 11:35:31;;;;;;;36.72;24.73;;;;;;;2.71;100.00;103469.13;6432684;23;20016;-67
2022/01/14 11:38:23;;;;;;;38.58;24.10;;;;;;;2.71;100.00;103466.53;6432444;23;20526;-69
2022/01/14 11:40:54;;;;;;;35.85;24.65;;;;;;;2.77;100.00;103466.03;6431676;23;20104;-70
2022/01/14 11:43:42;;;;;;;31.27;24.13;;;;;;;2.87;100.00;103470.97;6431306;23;20021;-66
2022/01/14 11:46:30;;;;;;;37.05;24.77;;;;;;;2.78;100.00;103472.97;6431446;23;20232;-68
2022/01/14 11:49:34;;;;;;;31.35;22.90;;;;;;;2.81;100.00;103470.59;6432029;23;20091;-67
2022/01/14 11:52:08;;;;;;;33.22;25.48;;;;;;;2.72;100.00;103471.78;6430904;23;20005;-70
2022/01/14 11:54:42;;;;;;;31.27;23.65;;;;;;;2.66;100.00;103462.78;6432066;23;20073;-68